Airfield :
LOGIN :

Register | Disclaimer

   EN    FR    IT 

 










Legend :    VFR   Marginal VFR   IFR   Intensive IFR   Very Intensive IFR
Visi :
Ceiling :
>= 8 km
>= 3000ft
5 to 8 km
1000 to 3000 ft
1500m to 5 km
500 to 1000 ft
800 to 1500m
200 to 500 ft
< 800m
< 200 ft
Symbols :   Thunderstorms  Fog  Heavy snow  Heavy precipitations  Wind > 20 kt
SIGMETs :     Misc.  Thunderstorms  Icing  Turbulence  Mountain Waves  Volcanic Ashes







- Airport Elevation : 194 ft


EBCV - Chièvres

CURRENT METAR :
  • 222325Z AUTO 23005KT 9999 NCD 16/12 Q1015 BLU

EXPIRED METARs :
  • 222255Z AUTO 24006KT 9999 FEW041/// 17/12 Q1015 BLU
  • 222225Z AUTO 24006KT 9999 BKN039/// 17/12 Q1015 BLU
  • 222155Z AUTO 24008KT 9999 BKN039/// 17/12 Q1015 BLU
  • 222125Z AUTO 25007KT 9999 SCT031/// 17/12 Q1015 BLU
  • 222055Z AUTO 26005KT 9999 SCT035/// 18/13 Q1014 BLU

TAF TAF EBCV
Valid from the 22 at 19:00 until the 23 at 07:00 UTC


221548Z 2219/2307 25015KT 9999 SCT280
BECMG 2300/2302 25010KT SCT030
TEMPO 2303/2307 SCT005 BKN025 BY EBWM
No reported NOTAMs for that airfield.



MET'MAP, your aeronautical weather chart ! - Copyright ORBIFLY December 2007 - Disclaimer

ORBIFLY MET'MAP TEAM :

Programming & Development : Alexandra Zaïnal
Concept & Development : Baudouin d'Aumeries
Co-Development & Prog : Marc-Olivier Méhu
Technical & hardware support : Manuel Goepfert

Contact : metmap@orbifly.com




SOURCES & CREDITS :

   NOAA